createdAt,value
2023-05-29T00:00:14.560Z,244.44
2023-05-29T00:01:14.532Z,249.32
2023-05-29T00:02:14.515Z,247.02
2023-05-29T00:03:14.641Z,250.00
2023-05-29T00:04:14.590Z,246.30
2023-05-29T00:05:14.521Z,247.03
2023-05-29T00:06:14.474Z,247.60
2023-05-29T00:07:14.520Z,247.98
2023-05-29T00:08:14.476Z,248.37
2023-05-29T00:09:14.446Z,247.78
2023-05-29T00:10:14.437Z,246.00
2023-05-29T00:11:14.458Z,246.15
2023-05-29T00:12:14.413Z,249.04
2023-05-29T00:13:14.463Z,246.63
2023-05-29T00:14:14.424Z,243.99
2023-05-29T00:15:14.444Z,248.20
2023-05-29T00:16:14.442Z,248.57
2023-05-29T00:17:14.395Z,245.46
2023-05-29T00:18:14.400Z,247.09
2023-05-29T00:19:14.401Z,246.53
2023-05-29T00:20:14.401Z,244.61
2023-05-29T00:21:14.411Z,249.70
2023-05-29T00:22:14.417Z,247.52
2023-05-29T00:23:14.445Z,244.04
2023-05-29T00:24:14.463Z,246.12
2023-05-29T00:25:14.502Z,247.18
2023-05-29T00:26:14.521Z,246.63
2023-05-29T00:27:14.527Z,243.94
2023-05-29T00:28:14.560Z,243.59
2023-05-29T00:29:14.584Z,247.17
2023-05-29T00:30:14.595Z,248.67
2023-05-29T00:31:14.629Z,247.27
2023-05-29T00:32:14.655Z,248.14
2023-05-29T00:33:14.663Z,244.60
2023-05-29T00:34:14.662Z,245.51
2023-05-29T00:35:14.649Z,247.26
2023-05-29T00:36:14.688Z,248.23
2023-05-29T00:37:14.715Z,245.36
2023-05-29T00:38:14.736Z,245.46
2023-05-29T00:39:14.763Z,245.90
2023-05-29T00:40:14.753Z,243.33
2023-05-29T00:41:14.752Z,246.32
2023-05-29T00:42:14.785Z,245.46
2023-05-29T00:43:14.790Z,244.48
2023-05-29T00:44:14.811Z,246.83
2023-05-29T00:45:14.852Z,246.96
2023-05-29T00:46:14.910Z,246.63
2023-05-29T00:47:14.884Z,247.44
2023-05-29T00:48:14.928Z,248.33
2023-05-29T00:49:14.887Z,245.35
2023-05-29T00:50:14.936Z,247.11
2023-05-29T00:51:14.951Z,246.46
2023-05-29T00:52:14.962Z,245.72
2023-05-29T00:53:14.985Z,246.64
2023-05-29T00:54:14.992Z,244.86
2023-05-29T00:55:14.989Z,249.37
2023-05-29T00:56:15.004Z,247.56
2023-05-29T00:57:15.056Z,246.31
2023-05-29T00:58:15.054Z,246.92
2023-05-29T00:59:15.018Z,246.06
2023-05-29T01:00:15.258Z,248.41
2023-05-29T01:01:15.129Z,247.96
2023-05-29T01:02:15.176Z,244.79
2023-05-29T01:03:15.191Z,243.78
2023-05-29T01:04:15.124Z,244.32
2023-05-29T01:05:15.133Z,244.22
2023-05-29T01:06:15.138Z,247.53
2023-05-29T01:07:15.247Z,249.27
2023-05-29T01:08:15.167Z,246.60
2023-05-29T01:09:15.194Z,247.93
2023-05-29T01:10:15.177Z,243.93
2023-05-29T01:11:15.233Z,248.56
2023-05-29T01:12:15.221Z,243.26
2023-05-29T01:13:15.250Z,248.12
2023-05-29T01:14:15.362Z,244.30
2023-05-29T01:15:15.275Z,243.66
2023-05-29T01:16:15.341Z,248.56
2023-05-29T01:17:15.315Z,245.22
2023-05-29T01:18:15.323Z,248.01
2023-05-29T01:19:15.376Z,246.50
2023-05-29T01:20:15.418Z,247.20
2023-05-29T01:21:15.411Z,246.12
2023-05-29T01:22:15.418Z,246.60
2023-05-29T01:23:15.472Z,245.20
2023-05-29T01:24:15.481Z,248.15
2023-05-29T01:25:15.500Z,244.75
2023-05-29T01:26:15.559Z,245.71
2023-05-29T01:27:15.521Z,246.02
2023-05-29T01:28:15.528Z,242.95
2023-05-29T01:29:15.572Z,247.04
2023-05-29T01:30:15.564Z,246.65
2023-05-29T01:31:15.648Z,247.48
2023-05-29T01:32:15.635Z,245.31
2023-05-29T01:33:15.641Z,248.13
2023-05-29T01:34:15.677Z,246.32
2023-05-29T01:35:15.673Z,248.07
2023-05-29T01:36:15.746Z,243.18
2023-05-29T01:37:15.727Z,245.99
2023-05-29T01:38:15.728Z,248.75
2023-05-29T01:39:15.746Z,246.05
2023-05-29T01:40:15.829Z,246.80
2023-05-29T01:41:15.861Z,247.37
2023-05-29T01:42:15.832Z,244.33
2023-05-29T01:43:15.894Z,244.60
2023-05-29T01:44:15.959Z,244.90
2023-05-29T01:45:15.929Z,246.94
2023-05-29T01:46:15.923Z,245.38
2023-05-29T01:47:16.035Z,247.60
2023-05-29T01:48:15.972Z,244.06
2023-05-29T01:49:15.981Z,245.10
2023-05-29T01:50:15.972Z,244.23
2023-05-29T01:51:16.057Z,245.80
2023-05-29T01:52:16.056Z,244.48
2023-05-29T01:53:16.090Z,244.78
2023-05-29T01:54:16.115Z,245.31
2023-05-29T01:55:16.098Z,245.73
2023-05-29T01:56:16.104Z,245.40
2023-05-29T01:57:16.138Z,245.27
2023-05-29T01:58:16.205Z,244.04
2023-05-29T01:59:16.210Z,245.84
2023-05-29T02:00:16.195Z,245.25
2023-05-29T02:01:16.273Z,243.08
2023-05-29T02:02:16.242Z,245.18
2023-05-29T02:03:16.333Z,244.89
2023-05-29T02:04:16.405Z,242.90
2023-05-29T02:05:16.302Z,247.33
2023-05-29T02:06:16.308Z,245.80
2023-05-29T02:07:16.360Z,243.86
2023-05-29T02:08:16.357Z,244.10
2023-05-29T02:09:16.366Z,243.54
2023-05-29T02:10:16.424Z,244.75
2023-05-29T02:11:16.500Z,245.72
2023-05-29T02:12:16.444Z,246.25
2023-05-29T02:13:16.450Z,239.91
2023-05-29T02:14:16.463Z,243.59
2023-05-29T02:15:16.510Z,243.50
2023-05-29T02:16:16.600Z,242.00
2023-05-29T02:17:16.538Z,242.88
2023-05-29T02:18:16.616Z,245.77
2023-05-29T02:19:16.578Z,244.01
2023-05-29T02:20:16.621Z,242.28
2023-05-29T02:21:16.694Z,245.44
2023-05-29T02:22:16.691Z,243.89
2023-05-29T02:23:16.755Z,246.47
2023-05-29T02:24:16.935Z,244.97
2023-05-29T02:25:16.734Z,243.80
2023-05-29T02:26:16.875Z,243.54
2023-05-29T02:27:16.752Z,244.01
2023-05-29T02:28:16.828Z,242.33
2023-05-29T02:29:17.028Z,241.96
2023-05-29T02:30:16.842Z,245.45
2023-05-29T02:31:17.419Z,243.14
2023-05-29T02:32:16.903Z,242.27
2023-05-29T02:33:16.888Z,246.03
2023-05-29T02:34:17.012Z,241.01
2023-05-29T02:35:16.974Z,245.08
2023-05-29T02:36:16.982Z,243.95
2023-05-29T02:37:16.973Z,246.34
2023-05-29T02:38:17.030Z,244.48
2023-05-29T02:39:17.082Z,243.50
2023-05-29T02:40:17.117Z,243.69
2023-05-29T02:41:17.103Z,240.78
2023-05-29T02:42:17.150Z,246.42
2023-05-29T02:43:17.161Z,244.24
2023-05-29T02:44:17.244Z,245.67
2023-05-29T02:45:17.223Z,247.57
2023-05-29T02:46:17.278Z,241.48
2023-05-29T02:47:17.281Z,243.57
2023-05-29T02:48:17.865Z,243.75
2023-05-29T02:49:17.345Z,247.23
2023-05-29T02:50:17.357Z,244.30
2023-05-29T02:51:17.339Z,244.37
2023-05-29T02:52:17.397Z,242.63
2023-05-29T02:53:17.395Z,245.16
2023-05-29T02:54:17.910Z,243.26
2023-05-29T02:55:17.418Z,244.61
2023-05-29T02:56:17.467Z,246.39
2023-05-29T02:57:17.448Z,246.55
2023-05-29T02:58:17.506Z,245.23
2023-05-29T02:59:17.476Z,244.95
2023-05-29T03:00:17.537Z,242.28
2023-05-29T03:01:17.656Z,244.33
2023-05-29T03:02:17.571Z,246.52
2023-05-29T03:03:17.601Z,243.23
2023-05-29T03:04:17.582Z,245.31
2023-05-29T03:05:17.616Z,243.77
2023-05-29T03:06:17.636Z,243.55
2023-05-29T03:07:17.623Z,242.72
2023-05-29T03:08:17.732Z,244.28
2023-05-29T03:09:17.717Z,241.15
2023-05-29T03:10:17.639Z,242.34
2023-05-29T03:11:17.715Z,245.04
2023-05-29T03:12:18.005Z,244.26
2023-05-29T03:13:17.700Z,244.79
2023-05-29T03:14:17.760Z,242.86
2023-05-29T03:15:17.804Z,242.57
2023-05-29T03:16:17.800Z,245.29
2023-05-29T03:17:17.830Z,242.17
2023-05-29T03:18:17.840Z,244.39
2023-05-29T03:19:17.838Z,242.92
2023-05-29T03:20:17.977Z,243.13
2023-05-29T03:21:17.894Z,241.73
2023-05-29T03:22:17.864Z,241.98
2023-05-29T03:23:17.920Z,244.15
2023-05-29T03:24:17.918Z,242.94
2023-05-29T03:25:17.961Z,243.58
2023-05-29T03:26:17.964Z,242.27
2023-05-29T03:27:18.095Z,245.25
2023-05-29T03:28:18.053Z,246.89
2023-05-29T03:29:18.069Z,243.49
2023-05-29T03:30:18.077Z,243.92
2023-05-29T03:31:18.135Z,243.72
2023-05-29T03:32:18.104Z,244.11
2023-05-29T03:33:18.150Z,242.87
2023-05-29T03:34:18.159Z,242.21
2023-05-29T03:35:18.231Z,242.32
2023-05-29T03:36:18.214Z,244.95
2023-05-29T03:37:18.257Z,241.45
2023-05-29T03:38:18.239Z,245.36
2023-05-29T03:39:18.261Z,244.64
2023-05-29T03:40:18.306Z,241.05
2023-05-29T03:41:18.306Z,244.51
2023-05-29T03:42:18.306Z,243.45
2023-05-29T03:43:18.360Z,241.40
2023-05-29T03:44:18.370Z,245.91
2023-05-29T03:45:18.376Z,243.92
2023-05-29T03:46:18.449Z,243.75
2023-05-29T03:47:18.446Z,243.65
2023-05-29T03:48:18.458Z,243.05
2023-05-29T03:49:18.518Z,243.84
2023-05-29T03:50:18.528Z,243.86
2023-05-29T03:51:19.366Z,243.13
2023-05-29T03:52:18.582Z,244.64
2023-05-29T03:53:18.636Z,241.33
2023-05-29T03:54:18.602Z,240.71
2023-05-29T03:55:18.659Z,244.22
2023-05-29T03:56:18.619Z,243.52
2023-05-29T03:57:18.681Z,241.89
2023-05-29T03:58:18.691Z,243.67
2023-05-29T03:59:18.749Z,242.20
2023-05-29T04:00:19.461Z,238.74
2023-05-29T04:01:18.701Z,243.39
2023-05-29T04:02:20.239Z,240.16
2023-05-29T04:03:18.881Z,241.62
2023-05-29T04:04:18.815Z,245.42
2023-05-29T04:05:18.755Z,244.02
2023-05-29T04:06:18.792Z,242.02
2023-05-29T04:07:18.809Z,246.22
2023-05-29T04:08:18.854Z,243.20
2023-05-29T04:09:18.872Z,238.82
2023-05-29T04:10:18.907Z,237.33
2023-05-29T04:11:18.911Z,239.52
2023-05-29T04:12:18.994Z,237.24
2023-05-29T04:13:18.988Z,229.94
2023-05-29T04:14:20.409Z,229.47
2023-05-29T04:15:19.000Z,221.86
2023-05-29T04:16:19.006Z,220.40
2023-05-29T04:17:19.144Z,218.96
2023-05-29T04:18:19.020Z,214.88
2023-05-29T04:19:19.068Z,210.51
2023-05-29T04:20:19.098Z,206.68
2023-05-29T04:21:19.172Z,204.99
2023-05-29T04:22:19.144Z,196.69
2023-05-29T04:23:19.162Z,191.81
2023-05-29T04:24:19.161Z,183.40
2023-05-29T04:25:19.216Z,186.07
2023-05-29T04:26:19.184Z,184.10
2023-05-29T04:27:19.228Z,181.12
2023-05-29T04:28:19.309Z,179.09
2023-05-29T04:29:19.304Z,174.49
2023-05-29T04:30:19.320Z,170.27
2023-05-29T04:31:19.341Z,169.75
2023-05-29T04:32:19.326Z,167.51
2023-05-29T04:33:19.335Z,166.62
2023-05-29T04:34:19.439Z,167.36
2023-05-29T04:35:19.394Z,162.44
2023-05-29T04:36:19.454Z,161.52
2023-05-29T04:37:19.413Z,159.54
2023-05-29T04:38:19.455Z,160.64
2023-05-29T04:39:19.480Z,161.28
2023-05-29T04:40:19.482Z,156.60
2023-05-29T04:41:19.533Z,159.29
2023-05-29T04:42:19.490Z,156.73
2023-05-29T04:43:19.536Z,157.23
2023-05-29T04:44:19.555Z,155.11
2023-05-29T04:45:19.539Z,158.04
2023-05-29T04:46:19.590Z,157.81
2023-05-29T04:47:19.584Z,157.80
2023-05-29T04:48:19.634Z,155.05
2023-05-29T04:49:19.633Z,153.43
2023-05-29T04:50:19.642Z,159.09
2023-05-29T04:51:19.649Z,156.08
2023-05-29T04:52:19.703Z,157.73
2023-05-29T04:53:19.704Z,156.54
2023-05-29T04:54:19.784Z,158.22
2023-05-29T04:55:19.797Z,158.59
2023-05-29T04:56:19.809Z,157.43
2023-05-29T04:57:19.800Z,159.35
2023-05-29T04:58:19.849Z,160.35
2023-05-29T04:59:19.851Z,155.73
2023-05-29T05:00:19.870Z,157.72
2023-05-29T05:01:19.969Z,161.93
2023-05-29T05:02:19.933Z,158.23
2023-05-29T05:03:19.937Z,157.98
2023-05-29T05:04:19.956Z,164.15
2023-05-29T05:05:20.031Z,161.04
2023-05-29T05:06:20.007Z,159.31
2023-05-29T05:07:20.070Z,164.37
2023-05-29T05:08:20.071Z,161.40
2023-05-29T05:09:20.908Z,164.04
2023-05-29T05:10:20.132Z,163.00
2023-05-29T05:11:20.125Z,162.78
2023-05-29T05:12:20.210Z,165.17
2023-05-29T05:13:20.230Z,168.43
2023-05-29T05:14:20.214Z,164.77
2023-05-29T05:15:20.232Z,164.01
2023-05-29T05:16:20.242Z,167.51
2023-05-29T05:17:20.279Z,168.46
2023-05-29T05:18:20.309Z,169.53
2023-05-29T05:19:20.315Z,168.09
2023-05-29T05:20:20.363Z,166.34
2023-05-29T05:21:20.340Z,171.21
2023-05-29T05:22:20.317Z,169.06
2023-05-29T05:23:20.338Z,169.38
2023-05-29T05:24:20.405Z,172.93
2023-05-29T05:25:20.406Z,171.75
2023-05-29T05:26:20.401Z,175.22
2023-05-29T05:27:20.469Z,172.78
2023-05-29T05:28:20.466Z,171.78
2023-05-29T05:29:20.468Z,172.38
2023-05-29T05:30:20.486Z,174.51
2023-05-29T05:31:20.539Z,172.64
2023-05-29T05:32:20.502Z,175.43
2023-05-29T05:33:20.552Z,175.75
2023-05-29T05:34:20.570Z,171.51
2023-05-29T05:35:20.593Z,178.55
2023-05-29T05:36:21.485Z,177.65
2023-05-29T05:37:21.409Z,183.99
2023-05-29T05:38:20.645Z,183.59
2023-05-29T05:39:20.652Z,179.41
2023-05-29T05:40:20.651Z,184.78
2023-05-29T05:41:20.674Z,184.97
2023-05-29T05:42:20.716Z,178.48
2023-05-29T05:43:20.739Z,178.09
2023-05-29T05:44:20.688Z,176.86
2023-05-29T05:45:20.749Z,174.30
2023-05-29T05:46:20.814Z,173.08
2023-05-29T05:47:20.762Z,172.85
2023-05-29T05:48:20.762Z,172.46
2023-05-29T05:49:21.429Z,171.27
2023-05-29T05:50:20.816Z,168.98
2023-05-29T05:51:20.890Z,161.67
2023-05-29T05:52:20.843Z,166.24
2023-05-29T05:53:20.904Z,164.22
2023-05-29T05:54:20.957Z,160.88
2023-05-29T05:55:21.043Z,157.49
2023-05-29T05:56:21.043Z,155.99
2023-05-29T05:57:21.042Z,154.28
2023-05-29T05:58:21.040Z,154.80
2023-05-29T05:59:21.091Z,154.23
2023-05-29T06:00:21.083Z,147.46
2023-05-29T06:01:21.121Z,144.76
2023-05-29T06:02:21.208Z,145.95
2023-05-29T06:03:21.357Z,144.08
2023-05-29T06:04:21.236Z,145.76
2023-05-29T06:05:21.136Z,145.01
2023-05-29T06:06:21.199Z,143.88
2023-05-29T06:07:21.226Z,141.40
2023-05-29T06:08:21.263Z,139.43
2023-05-29T06:09:23.023Z,137.22
2023-05-29T06:10:21.290Z,137.17
2023-05-29T06:11:21.321Z,137.11
2023-05-29T06:12:21.346Z,135.48
2023-05-29T06:13:21.393Z,134.62
2023-05-29T06:14:21.396Z,132.11
2023-05-29T06:15:21.414Z,130.92
2023-05-29T06:16:21.487Z,131.62
2023-05-29T06:17:23.380Z,133.04
2023-05-29T06:18:21.477Z,129.96
2023-05-29T06:19:21.487Z,129.41
2023-05-29T06:20:21.567Z,124.16
2023-05-29T06:21:21.548Z,123.75
2023-05-29T06:22:21.608Z,123.31
2023-05-29T06:23:21.617Z,122.28
2023-05-29T06:24:21.620Z,119.68
2023-05-29T06:25:21.686Z,119.75
2023-05-29T06:26:21.691Z,121.68
2023-05-29T06:27:21.675Z,118.49
2023-05-29T06:28:21.749Z,119.45
2023-05-29T06:29:21.761Z,119.71
2023-05-29T06:30:22.023Z,117.10
2023-05-29T06:31:21.806Z,118.19
2023-05-29T06:32:22.426Z,115.93
2023-05-29T06:33:21.846Z,115.59
2023-05-29T06:34:21.909Z,116.06
2023-05-29T06:35:21.917Z,115.46
2023-05-29T06:36:21.968Z,113.97
2023-05-29T06:37:21.963Z,113.41
2023-05-29T06:38:22.035Z,114.96
2023-05-29T06:39:22.036Z,114.30
2023-05-29T06:40:22.047Z,113.77
2023-05-29T06:41:22.095Z,114.48
2023-05-29T06:42:22.090Z,111.83
2023-05-29T06:43:22.099Z,112.66
2023-05-29T06:44:22.113Z,110.03
2023-05-29T06:45:22.165Z,116.49
2023-05-29T06:46:22.589Z,111.61
2023-05-29T06:47:22.186Z,110.20
2023-05-29T06:48:22.258Z,112.67
2023-05-29T06:49:22.272Z,111.50
2023-05-29T06:50:22.322Z,110.08
2023-05-29T06:51:22.337Z,107.57
2023-05-29T06:52:22.383Z,110.14
2023-05-29T06:53:22.364Z,105.84
2023-05-29T06:54:22.384Z,107.43
2023-05-29T06:55:22.403Z,107.68
2023-05-29T06:56:22.470Z,106.33
2023-05-29T06:57:22.473Z,104.95
2023-05-29T06:58:22.469Z,107.75
2023-05-29T06:59:22.562Z,103.80
2023-05-29T07:00:23.439Z,106.83
2023-05-29T07:01:22.552Z,103.78
2023-05-29T07:02:22.579Z,105.26
2023-05-29T07:03:23.149Z,105.22
2023-05-29T07:04:22.595Z,103.91
2023-05-29T07:05:22.606Z,102.48
2023-05-29T07:06:22.617Z,102.95
2023-05-29T07:07:22.648Z,102.81
2023-05-29T07:08:22.646Z,101.68
2023-05-29T07:09:22.736Z,101.39
2023-05-29T07:10:22.743Z,101.27
2023-05-29T07:11:22.775Z,100.29
2023-05-29T07:12:22.801Z,102.52
2023-05-29T07:13:22.794Z,101.51
2023-05-29T07:14:23.454Z,100.56
2023-05-29T07:15:22.826Z,99.42
2023-05-29T07:16:25.394Z,100.43
2023-05-29T07:17:22.855Z,98.35
2023-05-29T07:18:22.921Z,96.81
2023-05-29T07:19:22.853Z,101.71
2023-05-29T07:20:22.827Z,97.22
2023-05-29T07:21:23.583Z,100.87
2023-05-29T07:22:22.828Z,97.55
2023-05-29T07:23:22.855Z,95.77
2023-05-29T07:24:23.454Z,97.39
2023-05-29T07:25:22.771Z,97.05
2023-05-29T07:26:22.809Z,95.38
2023-05-29T07:27:22.761Z,95.74
2023-05-29T07:28:22.921Z,97.71
2023-05-29T07:29:22.842Z,95.27
2023-05-29T07:30:23.452Z,93.93
2023-05-29T07:31:22.786Z,93.31
2023-05-29T07:32:22.710Z,95.03
2023-05-29T07:33:22.748Z,94.57
2023-05-29T07:34:22.652Z,93.97
2023-05-29T07:35:22.672Z,92.91
2023-05-29T07:36:22.733Z,93.22
2023-05-29T07:37:22.656Z,93.98
2023-05-29T07:38:22.670Z,88.21
2023-05-29T07:39:22.636Z,94.27
2023-05-29T07:40:22.741Z,92.16
2023-05-29T07:41:22.697Z,94.21
2023-05-29T07:42:23.087Z,93.13
2023-05-29T07:43:22.628Z,94.13
2023-05-29T07:44:22.639Z,93.62
2023-05-29T07:45:22.596Z,93.11
2023-05-29T07:46:22.694Z,93.72
2023-05-29T07:47:22.585Z,92.78
2023-05-29T07:48:23.215Z,93.98
2023-05-29T07:49:22.701Z,93.61
2023-05-29T07:50:23.064Z,94.45
2023-05-29T07:51:23.558Z,93.36
2023-05-29T07:52:22.540Z,93.08
2023-05-29T07:53:22.544Z,90.93
2023-05-29T07:54:22.534Z,93.92
2023-05-29T07:55:22.494Z,93.93
2023-05-29T07:56:22.493Z,96.49
2023-05-29T07:57:22.588Z,96.01
2023-05-29T07:58:22.590Z,97.79
2023-05-29T07:59:22.624Z,95.81
2023-05-29T08:00:22.608Z,99.03
2023-05-29T08:01:22.685Z,99.30
2023-05-29T08:02:22.761Z,100.58
2023-05-29T08:03:22.803Z,102.41
2023-05-29T08:04:23.065Z,102.76
2023-05-29T08:05:22.754Z,103.61
2023-05-29T08:06:22.742Z,102.52
2023-05-29T08:07:22.751Z,102.63
2023-05-29T08:08:22.792Z,104.47
2023-05-29T08:09:22.796Z,106.28
2023-05-29T08:10:22.793Z,107.67
2023-05-29T08:11:22.778Z,107.13
2023-05-29T08:12:22.797Z,108.88
2023-05-29T08:13:22.839Z,107.76
2023-05-29T08:14:22.851Z,110.33
2023-05-29T08:15:22.863Z,108.59
2023-05-29T08:16:22.878Z,112.72
2023-05-29T08:17:23.465Z,114.28
2023-05-29T08:18:22.904Z,113.64
2023-05-29T08:19:23.002Z,114.39
2023-05-29T08:20:23.089Z,115.53
2023-05-29T08:21:23.007Z,114.80
2023-05-29T08:22:23.033Z,116.51
2023-05-29T08:23:23.075Z,114.70
2023-05-29T08:24:23.118Z,115.89
2023-05-29T08:25:23.066Z,115.71
2023-05-29T08:26:23.143Z,118.17
2023-05-29T08:27:23.098Z,121.42
2023-05-29T08:28:23.103Z,118.03
2023-05-29T08:29:23.112Z,119.34
2023-05-29T08:30:23.168Z,117.04
2023-05-29T08:31:23.190Z,115.97
2023-05-29T08:32:23.193Z,113.77
2023-05-29T08:33:23.188Z,114.97
2023-05-29T08:34:24.767Z,108.73
2023-05-29T08:35:23.230Z,109.96
2023-05-29T08:36:23.293Z,106.76
2023-05-29T08:37:23.325Z,106.58
2023-05-29T08:38:23.382Z,102.10
2023-05-29T08:39:23.351Z,102.54
2023-05-29T08:40:23.378Z,98.78
2023-05-29T08:41:23.521Z,97.64
2023-05-29T08:42:23.415Z,92.90
2023-05-29T08:43:23.502Z,96.36
2023-05-29T08:44:23.492Z,87.56
2023-05-29T08:45:23.548Z,93.27
2023-05-29T08:46:23.635Z,85.80
2023-05-29T08:47:23.545Z,89.49
2023-05-29T08:48:23.598Z,85.26
2023-05-29T08:49:23.584Z,84.65
2023-05-29T08:50:23.561Z,82.61
2023-05-29T08:51:23.576Z,82.29
2023-05-29T08:52:23.630Z,80.67
2023-05-29T08:53:23.639Z,78.29
2023-05-29T08:54:23.635Z,77.94
2023-05-29T08:55:23.688Z,72.58
2023-05-29T08:56:34.125Z,72.47
2023-05-29T08:57:24.679Z,72.65
2023-05-29T08:58:23.674Z,73.01
2023-05-29T08:59:23.634Z,73.11
2023-05-29T09:00:23.742Z,71.35
2023-05-29T09:01:23.716Z,72.06
2023-05-29T09:02:23.613Z,67.71
2023-05-29T09:03:23.791Z,66.87
2023-05-29T09:04:23.600Z,63.73
2023-05-29T09:05:23.619Z,60.36
2023-05-29T09:06:23.749Z,62.25
2023-05-29T09:07:23.619Z,58.34
2023-05-29T09:08:24.490Z,57.52
2023-05-29T09:09:24.497Z,55.12
2023-05-29T09:10:23.586Z,52.65
2023-05-29T09:11:23.560Z,54.64
2023-05-29T09:12:23.564Z,52.83
2023-05-29T09:13:23.529Z,49.32
2023-05-29T09:14:23.621Z,47.61
2023-05-29T09:15:23.545Z,47.98
2023-05-29T09:16:23.681Z,45.95
2023-05-29T09:17:23.530Z,46.89
2023-05-29T09:18:23.568Z,41.54
2023-05-29T09:19:23.578Z,43.34
2023-05-29T09:20:23.582Z,44.01
2023-05-29T09:21:23.621Z,41.71
2023-05-29T09:22:23.696Z,42.01
2023-05-29T09:23:23.632Z,44.55
2023-05-29T09:24:23.672Z,35.82
2023-05-29T09:25:23.687Z,35.02
2023-05-29T09:26:23.681Z,37.35
2023-05-29T09:27:23.693Z,33.14
2023-05-29T09:28:23.746Z,31.20
2023-05-29T09:29:23.766Z,31.63
2023-05-29T09:30:23.801Z,31.42
2023-05-29T09:31:23.824Z,31.99
2023-05-29T09:32:23.935Z,29.68
2023-05-29T09:33:23.838Z,29.58
2023-05-29T09:34:23.875Z,30.28
2023-05-29T09:35:23.963Z,26.02
2023-05-29T09:36:23.884Z,25.00
2023-05-29T09:37:23.901Z,26.02
2023-05-29T09:38:43.970Z,27.36
2023-05-29T09:39:25.119Z,27.40
2023-05-29T09:40:23.930Z,26.75
2023-05-29T09:41:23.920Z,27.71
2023-05-29T09:42:26.259Z,25.77
2023-05-29T09:43:24.050Z,23.22
2023-05-29T09:44:24.045Z,26.63
2023-05-29T09:45:24.211Z,25.00
2023-05-29T09:46:24.140Z,25.57
2023-05-29T09:47:24.142Z,25.59
2023-05-29T09:48:24.162Z,25.55
2023-05-29T09:49:24.592Z,25.00
2023-05-29T09:50:24.187Z,27.53
2023-05-29T09:51:25.408Z,26.76
2023-05-29T09:52:24.247Z,25.89
2023-05-29T09:53:24.252Z,29.31
2023-05-29T09:54:24.286Z,28.79
2023-05-29T09:55:24.294Z,25.41
2023-05-29T09:56:24.339Z,26.87
2023-05-29T09:57:24.356Z,27.65
2023-05-29T09:58:24.457Z,30.18
2023-05-29T09:59:24.418Z,29.40
2023-05-29T10:00:24.434Z,28.43
2023-05-29T10:01:24.529Z,26.21
2023-05-29T10:02:24.556Z,29.41
2023-05-29T10:03:24.548Z,32.12
2023-05-29T10:04:25.505Z,34.73
2023-05-29T10:05:24.615Z,35.44
2023-05-29T10:06:24.626Z,38.39
2023-05-29T10:07:24.585Z,36.43
2023-05-29T10:08:24.595Z,38.40
2023-05-29T10:09:24.605Z,42.47
2023-05-29T10:10:24.674Z,43.74
2023-05-29T10:11:24.669Z,46.75
2023-05-29T10:12:24.714Z,49.17
2023-05-29T10:13:24.684Z,51.96
2023-05-29T10:14:24.770Z,51.39
2023-05-29T10:15:24.784Z,53.97
2023-05-29T10:16:24.842Z,56.99
2023-05-29T10:17:24.843Z,58.70
2023-05-29T10:18:24.862Z,63.39
2023-05-29T10:19:24.907Z,64.72
2023-05-29T10:20:24.986Z,64.98
2023-05-29T10:21:24.986Z,69.14
2023-05-29T10:22:24.936Z,71.56
2023-05-29T10:23:25.009Z,71.97
2023-05-29T10:24:24.953Z,78.29
2023-05-29T10:25:24.974Z,77.71
2023-05-29T10:26:24.987Z,79.34
2023-05-29T10:27:25.039Z,81.55
2023-05-29T10:28:25.039Z,85.64
2023-05-29T10:29:25.125Z,88.61
2023-05-29T10:30:25.139Z,85.59
2023-05-29T10:31:25.158Z,90.04
2023-05-29T10:32:25.211Z,93.85
2023-05-29T10:33:25.137Z,94.36
2023-05-29T10:34:25.150Z,96.75
2023-05-29T10:35:25.245Z,97.68
2023-05-29T10:36:25.323Z,98.01
2023-05-29T10:37:25.245Z,99.53
2023-05-29T10:38:25.227Z,101.15
2023-05-29T10:39:25.268Z,103.59
2023-05-29T10:40:25.288Z,104.61
2023-05-29T10:41:25.269Z,109.36
2023-05-29T10:42:25.322Z,108.37
2023-05-29T10:43:25.344Z,109.59
2023-05-29T10:44:25.340Z,112.61
2023-05-29T10:45:25.408Z,114.43
2023-05-29T10:46:25.432Z,115.09
2023-05-29T10:47:25.469Z,116.00
2023-05-29T10:48:25.554Z,117.78
2023-05-29T10:49:25.481Z,118.52
2023-05-29T10:50:25.504Z,121.34
2023-05-29T10:51:26.172Z,120.07
2023-05-29T10:52:25.567Z,122.17
2023-05-29T10:53:25.648Z,123.44
2023-05-29T10:54:25.623Z,124.20
2023-05-29T10:55:25.627Z,122.76
2023-05-29T10:56:25.626Z,123.21
2023-05-29T10:57:25.728Z,123.88
2023-05-29T10:58:25.825Z,126.09
2023-05-29T10:59:25.759Z,126.73
2023-05-29T11:00:25.749Z,126.16
2023-05-29T11:01:25.819Z,127.16
2023-05-29T11:02:25.863Z,127.48
2023-05-29T11:03:25.866Z,127.81
2023-05-29T11:04:25.912Z,131.55
2023-05-29T11:05:25.898Z,132.70
2023-05-29T11:06:25.904Z,130.60
2023-05-29T11:07:25.975Z,134.60
2023-05-29T11:08:25.973Z,132.80
2023-05-29T11:09:25.978Z,134.59
2023-05-29T11:10:26.028Z,135.10
2023-05-29T11:11:26.042Z,136.83
2023-05-29T11:12:26.097Z,137.93
2023-05-29T11:13:26.127Z,137.04
2023-05-29T11:14:26.113Z,137.62
2023-05-29T11:15:26.138Z,140.44
2023-05-29T11:16:26.239Z,138.29
2023-05-29T11:17:26.252Z,137.18
2023-05-29T11:18:26.276Z,140.42
2023-05-29T11:19:26.256Z,141.15
2023-05-29T11:20:26.216Z,139.78
2023-05-29T11:21:26.314Z,140.26
2023-05-29T11:22:26.318Z,140.96
2023-05-29T11:23:26.335Z,142.02
2023-05-29T11:24:27.045Z,141.11
2023-05-29T11:25:26.364Z,142.53
2023-05-29T11:26:26.422Z,143.22
2023-05-29T11:27:26.429Z,141.54
2023-05-29T11:28:26.423Z,143.68
2023-05-29T11:29:26.463Z,144.90
2023-05-29T11:30:26.442Z,142.94
2023-05-29T11:31:26.492Z,145.42
2023-05-29T11:32:26.487Z,144.10
2023-05-29T11:33:26.509Z,146.60
2023-05-29T11:34:26.570Z,145.68
2023-05-29T11:35:26.575Z,143.85
2023-05-29T11:36:26.602Z,146.87
2023-05-29T11:37:26.593Z,145.92
2023-05-29T11:38:26.634Z,146.85
2023-05-29T11:39:26.642Z,147.48
2023-05-29T11:40:26.648Z,147.39
2023-05-29T11:41:26.706Z,147.23
2023-05-29T11:42:26.741Z,148.04
2023-05-29T11:43:26.751Z,147.08
2023-05-29T11:44:26.754Z,146.63
2023-05-29T11:45:26.747Z,149.70
2023-05-29T11:46:26.796Z,148.63
2023-05-29T11:47:26.858Z,147.20
2023-05-29T11:48:26.817Z,148.41
2023-05-29T11:49:26.892Z,148.81
2023-05-29T11:50:26.841Z,149.12
2023-05-29T11:51:26.895Z,147.08
2023-05-29T11:52:26.901Z,148.86
2023-05-29T11:53:26.959Z,149.56
2023-05-29T11:54:26.960Z,149.02
2023-05-29T11:55:27.034Z,150.78
2023-05-29T11:56:27.028Z,149.63
2023-05-29T11:57:27.070Z,149.65
2023-05-29T11:58:27.074Z,152.29
2023-05-29T11:59:27.097Z,153.08
2023-05-29T12:00:27.153Z,149.63
2023-05-29T12:01:27.114Z,151.02
2023-05-29T12:02:28.388Z,153.08
2023-05-29T12:03:27.342Z,153.40
2023-05-29T12:04:27.218Z,152.14
2023-05-29T12:05:27.293Z,150.44
2023-05-29T12:06:27.295Z,149.57
2023-05-29T12:07:27.446Z,151.74
2023-05-29T12:08:27.348Z,151.11
2023-05-29T12:09:27.436Z,151.24
2023-05-29T12:10:27.442Z,152.24
2023-05-29T12:11:27.486Z,154.44
2023-05-29T12:12:27.499Z,154.38
2023-05-29T12:13:27.588Z,154.04
2023-05-29T12:14:27.562Z,154.17
2023-05-29T12:15:27.560Z,155.00
2023-05-29T12:16:28.102Z,153.68
2023-05-29T12:17:27.682Z,154.87
2023-05-29T12:18:27.748Z,152.97
2023-05-29T12:19:27.706Z,153.21
2023-05-29T12:20:27.743Z,156.95
2023-05-29T12:21:27.735Z,153.82
2023-05-29T12:22:28.795Z,156.29
2023-05-29T12:23:27.890Z,157.41
2023-05-29T12:24:39.172Z,154.70
2023-05-29T12:25:28.951Z,154.91
2023-05-29T12:26:27.891Z,155.43
2023-05-29T12:27:27.912Z,155.97
2023-05-29T12:28:27.878Z,156.08
2023-05-29T12:29:27.847Z,157.10
2023-05-29T12:30:33.517Z,156.45
2023-05-29T12:31:28.867Z,156.61
2023-05-29T12:32:27.953Z,156.55
2023-05-29T12:33:27.942Z,157.26